Time;durP1;ratioP1;P1;durP2;ratioP2;P2;SDS_P1;SDS_P2;PMS_P1;PMS_P2;Temp;Humidity;BMP_temperature;BMP_pressure;BME280_temperature;BME280_humidity;BME280_pressure;Samples;Min_cycle;Max_cycle;Signal;HPM_P1;HPM_P2
2022/04/29 00:01:39;;;;;;;19.35;13.95;;;12.60;99.90;;;;;;4976577;28;20200;-75
2022/04/29 00:04:06;;;;;;;16.63;13.13;;;12.40;99.90;;;;;;4963713;28;20220;-76
2022/04/29 00:06:34;;;;;;;17.23;13.23;;;12.00;99.90;;;;;;4978715;28;20568;-76
2022/04/29 00:09:01;;;;;;;18.50;13.43;;;11.80;99.90;;;;;;4966175;28;20205;-76
2022/04/29 00:11:28;;;;;;;14.45;12.73;;;11.90;99.90;;;;;;4957721;28;20190;-76
2022/04/29 00:13:56;;;;;;;14.65;13.10;;;11.90;99.90;;;;;;4970810;28;20228;-76
2022/04/29 00:16:25;;;;;;;17.85;12.52;;;11.90;99.90;;;;;;4958853;28;20213;-76
2022/04/29 00:18:57;;;;;;;17.92;12.57;;;12.00;99.90;;;;;;4977794;28;20224;-76
2022/04/29 00:21:24;;;;;;;13.15;11.52;;;11.80;99.90;;;;;;4969324;28;20224;-76
2022/04/29 00:23:52;;;;;;;17.08;12.02;;;11.70;99.90;;;;;;4960853;28;20233;-76
2022/04/29 00:26:19;;;;;;;14.63;11.35;;;11.80;99.90;;;;;;4979504;28;20197;-76
2022/04/29 00:28:46;;;;;;;16.88;12.48;;;11.80;99.90;;;;;;4972029;28;20197;-76
2022/04/29 00:31:13;;;;;;;13.10;11.80;;;11.80;99.90;;;;;;4981880;28;20705;-76
2022/04/29 00:33:41;;;;;;;13.10;11.70;;;11.80;99.90;;;;;;4987380;28;20232;-76
2022/04/29 00:36:10;;;;;;;16.10;12.10;;;11.80;99.90;;;;;;4977770;28;20687;-76
2022/04/29 00:38:38;;;;;;;15.40;11.65;;;11.70;99.90;;;;;;4986071;28;20224;-76
2022/04/29 00:41:05;;;;;;;13.90;12.02;;;11.60;99.90;;;;;;4965516;28;20212;-76
2022/04/29 00:43:32;;;;;;;16.40;12.07;;;11.60;99.90;;;;;;4964685;28;20221;-76
2022/04/29 00:46:23;;;;;;;14.15;11.68;;;11.70;99.90;;;;;;4984094;28;20534;-76
2022/04/29 00:48:50;;;;;;;13.53;12.13;;;11.80;99.90;;;;;;4989518;28;20674;-76
2022/04/29 00:51:19;;;;;;;16.85;12.30;;;11.70;99.90;;;;;;4972165;28;20224;-76
2022/04/29 00:53:46;;;;;;;14.27;12.30;;;11.70;99.90;;;;;;4985419;28;20232;-76
2022/04/29 00:56:16;;;;;;;13.80;11.50;;;11.70;99.90;;;;;;4972144;28;20229;-76
2022/04/29 00:58:47;;;;;;;16.20;11.93;;;11.60;99.90;;;;;;4978415;28;20201;-76
2022/04/29 01:01:29;;;;;;;16.57;12.10;;;11.40;99.90;;;;;;4972637;28;20197;-76
2022/04/29 01:03:57;;;;;;;13.67;12.17;;;11.50;99.90;;;;;;4967062;28;20310;-76
2022/04/29 01:06:27;;;;;;;16.07;11.90;;;11.40;99.90;;;;;;4973315;28;20209;-76
2022/04/29 01:08:54;;;;;;;12.48;10.82;;;11.40;99.90;;;;;;4980945;28;20197;-76
2022/04/29 01:11:24;;;;;;;13.03;10.13;;;11.20;99.90;;;;;;4986537;28;20205;-76
2022/04/29 01:13:52;;;;;;;14.40;11.13;;;11.40;99.90;;;;;;4974185;28;20223;-76
2022/04/29 01:16:21;;;;;;;14.27;10.37;;;11.40;99.90;;;;;;4978185;28;20241;-76
2022/04/29 01:18:51;;;;;;;15.17;11.77;;;11.60;99.90;;;;;;4973689;28;20223;-76
2022/04/29 01:21:18;;;;;;;12.23;10.60;;;11.50;99.90;;;;;;4974415;28;20200;-76
2022/04/29 01:23:47;;;;;;;10.73;9.23;;;11.70;99.90;;;;;;4979306;28;20727;-76
2022/04/29 01:26:15;;;;;;;10.97;9.90;;;11.80;99.90;;;;;;4964767;28;20662;-76
2022/04/29 01:28:48;;;;;;;14.55;10.57;;;11.70;99.90;;;;;;4979729;28;20212;-76
2022/04/29 01:31:16;;;;;;;12.17;9.90;;;11.20;99.90;;;;;;4985308;28;20675;-76
2022/04/29 01:33:48;;;;;;;14.43;10.60;;;11.20;99.90;;;;;;4980180;28;20232;-76
2022/04/29 01:36:17;;;;;;;12.80;10.27;;;11.00;99.90;;;;;;4989860;28;20683;-76
2022/04/29 01:38:44;;;;;;;10.77;9.67;;;11.00;99.90;;;;;;4977365;28;20582;-76
2022/04/29 01:41:14;;;;;;;13.87;9.50;;;11.20;99.90;;;;;;4963583;28;20202;-76
2022/04/29 01:43:44;;;;;;;13.23;9.60;;;11.40;99.90;;;;;;4968481;28;20688;-76
2022/04/29 01:46:14;;;;;;;15.70;10.40;;;11.40;99.90;;;;;;4963331;28;20190;-76
2022/04/29 01:48:44;;;;;;;12.17;9.17;;;11.60;99.90;;;;;;4956662;28;20205;-76
2022/04/29 01:51:19;;;;;;;11.70;9.60;;;11.40;99.90;;;;;;4989521;28;20201;-76
2022/04/29 01:53:53;;;;;;;13.10;8.90;;;11.10;99.90;;;;;;4957854;28;20233;-76
2022/04/29 01:56:32;;;;;;;14.37;10.40;;;10.80;99.90;;;;;;4965397;28;20209;-76
2022/04/29 01:59:00;;;;;;;13.33;8.47;;;10.90;99.90;;;;;;4983614;28;20211;-77
2022/04/29 02:01:29;;;;;;;12.43;9.13;;;11.00;99.90;;;;;;4959243;28;20217;-77
2022/04/29 02:03:58;;;;;;;12.73;9.00;;;11.20;99.90;;;;;;4990192;28;20236;-77
2022/04/29 02:06:27;;;;;;;9.93;8.47;;;10.90;99.90;;;;;;4969252;28;20197;-77
2022/04/29 02:08:56;;;;;;;11.93;8.23;;;11.00;99.90;;;;;;4982002;28;20205;-77
2022/04/29 02:11:25;;;;;;;10.57;7.73;;;11.00;99.90;;;;;;4989144;28;20197;-77
2022/04/29 02:14:09;;;;;;;10.37;7.40;;;11.00;99.90;;;;;;4984291;28;20217;-77
2022/04/29 02:17:02;;;;;;;9.57;7.53;;;10.80;99.90;;;;;;4964593;28;20217;-77
2022/04/29 02:19:38;;;;;;;7.57;6.73;;;10.80;99.90;;;;;;4970043;28;20203;-76
2022/04/29 02:22:08;;;;;;;9.93;7.17;;;10.80;99.90;;;;;;4967754;28;20220;-77
2022/04/29 02:24:35;;;;;;;9.77;7.20;;;10.40;99.90;;;;;;4986117;28;20225;-77
2022/04/29 02:27:07;;;;;;;9.20;7.23;;;10.30;99.90;;;;;;4959899;28;20201;-77
2022/04/29 02:29:36;;;;;;;10.40;6.77;;;10.20;99.90;;;;;;4971733;28;20209;-77
2022/04/29 02:32:12;;;;;;;9.53;6.90;;;10.10;99.90;;;;;;4982843;28;20277;-77
2022/04/29 02:34:45;;;;;;;10.13;7.13;;;10.10;99.90;;;;;;4985949;28;20231;-77
2022/04/29 02:37:14;;;;;;;11.03;7.37;;;10.00;99.90;;;;;;4961211;28;20210;-77
2022/04/29 02:39:44;;;;;;;9.87;7.33;;;10.20;99.90;;;;;;4973212;28;20216;-77
2022/04/29 02:42:13;;;;;;;10.03;6.77;;;10.20;99.90;;;;;;4981790;28;20197;-77
2022/04/29 02:44:41;;;;;;;9.00;6.83;;;10.20;99.90;;;;;;4970737;28;20225;-76
2022/04/29 02:47:10;;;;;;;9.33;6.40;;;10.30;99.90;;;;;;4956300;28;20194;-77
2022/04/29 02:49:39;;;;;;;7.50;6.13;;;10.40;99.90;;;;;;4980620;28;20197;-77
2022/04/29 02:52:07;;;;;;;12.60;6.83;;;10.40;99.90;;;;;;4983550;28;20563;-77
2022/04/29 02:54:35;;;;;;;9.57;7.40;;;10.30;99.90;;;;;;4985253;28;20226;-77
2022/04/29 02:57:05;;;;;;;7.57;6.40;;;10.20;99.90;;;;;;4980871;28;20212;-76
2022/04/29 02:59:38;;;;;;;13.37;6.70;;;10.40;99.90;;;;;;4971936;28;20204;-77
2022/04/29 03:02:06;;;;;;;9.83;7.20;;;10.50;99.90;;;;;;4960840;28;20202;-77
2022/04/29 03:04:35;;;;;;;10.47;6.60;;;10.40;99.90;;;;;;4981828;28;20220;-77
2022/04/29 03:07:03;;;;;;;9.47;6.70;;;10.10;99.90;;;;;;4979125;28;20663;-76
2022/04/29 03:09:47;;;;;;;10.47;6.67;;;10.20;99.90;;;;;;4970989;28;20219;-76
2022/04/29 03:12:15;;;;;;;11.13;6.17;;;10.10;99.90;;;;;;4964736;28;20213;-77
2022/04/29 03:15:19;;;;;;;10.33;6.83;;;10.20;99.90;;;;;;4979722;28;20225;-77
2022/04/29 03:20:44;;;;;;;10.20;6.80;;;10.40;99.90;;;;;;4971269;28;20192;-78
2022/04/29 03:23:13;;;;;;;8.03;6.03;;;10.30;99.90;;;;;;4984204;28;20228;-77
2022/04/29 03:25:47;;;;;;;11.77;6.77;;;10.40;99.90;;;;;;4980328;28;20205;-77
2022/04/29 03:28:16;;;;;;;11.13;7.10;;;10.20;99.90;;;;;;4969334;28;20201;-76
2022/04/29 03:30:45;;;;;;;8.87;6.87;;;9.80;99.90;;;;;;4980360;28;20209;-78
2022/04/29 03:33:12;;;;;;;9.03;7.40;;;9.50;99.90;;;;;;4975304;28;20202;-78
2022/04/29 03:35:56;;;;;;;8.90;6.20;;;9.50;99.90;;;;;;4982189;28;20213;-78
2022/04/29 03:38:43;;;;;;;7.43;6.37;;;9.60;99.90;;;;;;4970303;28;20675;-77
2022/04/29 03:41:13;;;;;;;13.43;7.20;;;9.60;99.90;;;;;;4988099;28;20197;-77
2022/04/29 03:43:41;;;;;;;9.90;7.13;;;9.70;99.90;;;;;;4986476;28;20224;-78
2022/04/29 03:46:14;;;;;;;10.73;7.20;;;9.80;99.90;;;;;;4967738;28;20216;-78
2022/04/29 03:51:51;;;;;;;8.87;7.27;;;9.60;99.90;;;;;;4956729;28;20196;-77
2022/04/29 03:54:19;;;;;;;10.03;7.40;;;9.90;99.90;;;;;;4960659;28;20236;-77
2022/04/29 03:56:52;;;;;;;11.07;7.20;;;9.90;99.90;;;;;;4989016;28;20228;-77
2022/04/29 03:59:20;;;;;;;9.17;6.77;;;9.60;99.90;;;;;;4991511;28;20192;-77
2022/04/29 04:01:51;;;;;;;9.90;7.10;;;9.50;99.90;;;;;;4980691;28;20193;-77
2022/04/29 04:04:18;;;;;;;8.47;6.70;;;9.50;99.90;;;;;;4991951;28;20228;-77
2022/04/29 04:06:52;;;;;;;10.77;6.83;;;9.30;99.90;;;;;;4984962;28;20206;-77
2022/04/29 04:09:39;;;;;;;10.17;7.20;;;9.30;99.90;;;;;;4987748;28;20208;-77
2022/04/29 04:12:08;;;;;;;10.03;7.20;;;9.50;99.90;;;;;;4983674;28;20205;-77
2022/04/29 04:14:59;;;;;;;7.80;7.00;;;9.70;99.90;;;;;;4966026;28;20698;-77
2022/04/29 04:17:28;;;;;;;10.77;7.40;;;9.70;99.90;;;;;;4971805;28;20228;-77
2022/04/29 04:19:56;;;;;;;12.53;7.50;;;9.90;99.90;;;;;;4982687;28;20204;-77
2022/04/29 04:22:23;;;;;;;11.50;7.30;;;9.90;99.90;;;;;;4992973;28;20200;-76
2022/04/29 04:24:50;;;;;;;14.07;8.13;;;9.90;99.90;;;;;;4988522;28;20302;-77
2022/04/29 04:27:18;;;;;;;11.03;7.27;;;9.90;99.90;;;;;;4988123;28;20193;-77
2022/04/29 04:29:45;;;;;;;13.73;8.10;;;9.80;99.90;;;;;;4986255;28;20197;-77
2022/04/29 04:32:13;;;;;;;12.27;7.50;;;9.70;99.90;;;;;;4960306;28;20518;-81
2022/04/29 04:34:53;;;;;;;11.97;7.43;;;9.60;99.90;;;;;;4989881;28;20217;-81
2022/04/29 04:37:26;;;;;;;12.50;7.70;;;9.70;99.90;;;;;;4968108;28;20223;-81
2022/04/29 04:40:00;;;;;;;10.30;7.57;;;9.70;99.90;;;;;;4987384;28;20203;-81
2022/04/29 04:42:44;;;;;;;16.07;7.50;;;10.00;99.90;;;;;;4961828;28;20589;-80
2022/04/29 04:45:11;;;;;;;12.50;7.97;;;10.20;99.90;;;;;;4987421;28;20213;-81
2022/04/29 04:47:50;;;;;;;9.90;7.87;;;10.20;99.90;;;;;;4970776;28;20201;-81
2022/04/29 04:50:54;;;;;;;12.07;8.00;;;10.30;99.90;;;;;;4979168;28;20195;-81
2022/04/29 04:53:22;;;;;;;12.43;7.90;;;10.30;99.90;;;;;;4993563;28;20563;-81
2022/04/29 04:55:49;;;;;;;13.67;7.73;;;10.20;99.90;;;;;;4986873;28;20202;-81
2022/04/29 04:58:16;;;;;;;14.50;8.23;;;10.00;99.90;;;;;;4993687;28;20217;-81
2022/04/29 05:00:44;;;;;;;16.13;9.27;;;9.70;99.90;;;;;;4986642;28;20208;-81
2022/04/29 05:03:41;;;;;;;12.37;8.20;;;9.30;99.90;;;;;;4964455;28;20213;-81
2022/04/29 05:06:29;;;;;;;12.73;8.57;;;9.30;99.90;;;;;;4968585;28;20193;-81
2022/04/29 05:08:58;;;;;;;16.27;8.83;;;9.20;99.90;;;;;;4965123;28;20682;-79
2022/04/29 05:11:25;;;;;;;11.90;8.57;;;9.60;99.90;;;;;;4971772;28;20210;-81
2022/04/29 05:13:57;;;;;;;17.90;8.93;;;9.50;99.90;;;;;;4965250;28;20245;-81
2022/04/29 05:16:26;;;;;;;18.97;10.97;;;9.70;99.90;;;;;;4982038;28;20208;-80
2022/04/29 05:19:25;;;;;;;15.50;9.53;;;9.80;99.90;;;;;;4964315;28;20201;-80
2022/04/29 05:21:55;;;;;;;16.27;10.17;;;9.90;99.90;;;;;;4970136;28;20285;-80
2022/04/29 05:24:26;;;;;;;12.73;8.83;;;9.60;99.90;;;;;;4984042;28;20229;-82
2022/04/29 05:27:19;;;;;;;14.17;9.47;;;9.80;99.90;;;;;;4975745;28;20232;-81
2022/04/29 05:30:08;;;;;;;14.90;9.60;;;10.10;99.90;;;;;;4973189;28;20454;-81
2022/04/29 05:33:04;;;;;;;17.20;9.33;;;10.20;99.90;;;;;;4965587;28;20197;-80
2022/04/29 05:35:50;;;;;;;17.27;9.43;;;10.20;99.90;;;;;;4984707;28;20188;-81
2022/04/29 05:44:10;;;;;;;14.63;10.17;;;10.30;99.90;;;;;;4991463;28;20228;-80
2022/04/29 05:46:38;;;;;;;15.97;10.20;;;10.10;99.90;;;;;;4977064;28;20663;-78
2022/04/29 05:49:14;;;;;;;16.40;10.17;;;9.70;99.90;;;;;;4990036;28;20219;-80
2022/04/29 05:51:46;;;;;;;17.13;10.37;;;9.90;99.90;;;;;;4997479;28;20205;-81
2022/04/29 05:54:16;;;;;;;20.93;10.70;;;10.10;99.90;;;;;;4974580;28;20229;-80
2022/04/29 05:56:44;;;;;;;19.43;10.87;;;9.90;99.90;;;;;;4992138;28;20196;-80
2022/04/29 05:59:15;;;;;;;15.90;10.73;;;9.70;99.90;;;;;;4972582;28;20232;-79
2022/04/29 06:01:59;;;;;;;17.17;10.13;;;9.60;99.90;;;;;;4962843;28;20210;-80
2022/04/29 06:04:55;;;;;;;19.00;11.93;;;9.80;99.90;;;;;;4974631;28;20239;-80
2022/04/29 06:07:22;;;;;;;17.57;12.13;;;9.50;99.90;;;;;;4990597;28;20808;-80
2022/04/29 06:09:51;;;;;;;18.40;11.70;;;9.50;99.90;;;;;;4987977;28;20201;-80
2022/04/29 06:12:19;;;;;;;17.30;11.73;;;9.60;99.90;;;;;;4986989;28;20205;-80
2022/04/29 06:15:02;;;;;;;19.33;12.60;;;9.70;99.90;;;;;;4974830;28;20221;-80
2022/04/29 06:17:48;;;;;;;17.10;12.07;;;9.80;99.90;;;;;;4976615;28;20223;-80
2022/04/29 06:20:38;;;;;;;19.80;12.23;;;9.80;99.90;;;;;;4974561;28;20196;-81
2022/04/29 06:23:25;;;;;;;19.80;12.37;;;9.80;99.90;;;;;;4976801;28;20228;-80
2022/04/29 06:25:57;;;;;;;17.37;12.33;;;9.70;99.90;;;;;;4966741;28;20202;-80
2022/04/29 06:28:28;;;;;;;17.27;13.47;;;10.00;99.90;;;;;;4971929;28;20194;-80
2022/04/29 06:30:55;;;;;;;19.57;12.37;;;10.10;99.90;;;;;;4974350;28;20643;-81
2022/04/29 06:33:30;;;;;;;18.20;11.93;;;10.10;99.90;;;;;;4981099;28;20220;-80
2022/04/29 06:35:58;;;;;;;17.80;11.97;;;10.20;99.90;;;;;;4983305;28;20198;-81
2022/04/29 06:38:25;;;;;;;18.60;12.77;;;10.30;99.90;;;;;;4989332;28;20237;-80
2022/04/29 06:40:58;;;;;;;19.13;12.93;;;10.60;99.90;;;;;;4982842;28;20186;-81
2022/04/29 06:43:33;;;;;;;19.77;13.40;;;10.50;99.90;;;;;;4975412;28;20212;-79
2022/04/29 06:46:20;;;;;;;22.10;12.80;;;10.40;99.90;;;;;;4977408;28;20205;-79
2022/04/29 06:48:50;;;;;;;18.50;13.17;;;10.80;99.90;;;;;;4982595;28;20204;-80
2022/04/29 06:51:36;;;;;;;20.27;13.13;;;10.70;99.90;;;;;;4985499;28;20185;-80
2022/04/29 06:54:10;;;;;;;18.43;12.67;;;10.90;99.90;;;;;;4975073;28;20228;-80
2022/04/29 06:56:41;;;;;;;17.43;12.33;;;10.90;99.90;;;;;;4976745;28;20638;-80
2022/04/29 06:59:08;;;;;;;17.77;13.03;;;11.10;99.90;;;;;;4975518;28;20209;-80
2022/04/29 07:01:38;;;;;;;17.80;13.03;;;11.00;99.90;;;;;;4976750;28;20228;-80
2022/04/29 07:04:07;;;;;;;20.93;13.40;;;11.00;99.90;;;;;;4975943;28;20709;-80
2022/04/29 07:06:34;;;;;;;20.47;12.90;;;11.10;99.90;;;;;;4975921;28;20205;-79
2022/04/29 07:09:04;;;;;;;17.53;12.87;;;11.10;99.90;;;;;;4976118;28;20201;-80
2022/04/29 07:11:44;;;;;;;22.40;12.90;;;11.20;99.90;;;;;;4984455;28;20208;-80
2022/04/29 07:14:22;;;;;;;19.10;12.30;;;11.20;99.90;;;;;;4976768;28;20583;-80
2022/04/29 07:17:03;;;;;;;17.93;12.63;;;11.00;99.90;;;;;;4992391;28;20201;-78
2022/04/29 07:19:37;;;;;;;18.27;13.27;;;11.20;99.90;;;;;;4976386;28;20212;-80
2022/04/29 07:22:06;;;;;;;20.47;14.40;;;11.40;99.90;;;;;;4993007;28;20200;-80
2022/04/29 07:24:37;;;;;;;18.83;13.30;;;11.60;99.90;;;;;;4975882;28;20241;-80
2022/04/29 07:27:15;;;;;;;21.20;14.17;;;11.80;99.90;;;;;;4992422;28;20209;-79
2022/04/29 07:29:43;;;;;;;19.07;14.20;;;12.10;99.90;;;;;;4978793;28;20194;-77
2022/04/29 07:32:15;;;;;;;23.03;15.13;;;12.10;99.90;;;;;;4970931;28;20221;-77
2022/04/29 07:43:51;;;;;;;19.00;13.47;;;12.00;99.90;;;;;;4971040;28;20221;-77
2022/04/29 07:46:22;;;;;;;21.60;13.57;;;12.20;99.90;;;;;;4986775;28;20208;-77
2022/04/29 07:49:13;;;;;;;20.93;13.87;;;12.10;99.90;;;;;;4971880;28;20193;-77
2022/04/29 07:51:41;;;;;;;20.00;13.37;;;12.30;99.90;;;;;;4987024;28;20217;-77
2022/04/29 07:54:08;;;;;;;16.15;13.30;;;12.60;99.90;;;;;;4986881;28;20244;-77
2022/04/29 07:56:37;;;;;;;17.25;13.00;;;12.80;99.90;;;;;;4971294;28;20193;-77
2022/04/29 07:59:06;;;;;;;19.70;12.88;;;12.80;99.90;;;;;;4982841;28;20224;-77
2022/04/29 08:01:36;;;;;;;18.70;12.20;;;13.00;99.90;;;;;;4986319;28;20201;-79
2022/04/29 08:04:04;;;;;;;14.45;12.10;;;13.00;99.90;;;;;;4983433;28;20229;-75
2022/04/29 08:06:32;;;;;;;15.68;11.75;;;13.20;99.90;;;;;;4969497;28;20679;-75
2022/04/29 08:08:59;;;;;;;15.82;11.82;;;13.30;99.90;;;;;;4970964;28;20204;-75
2022/04/29 08:11:43;;;;;;;15.15;11.05;;;13.30;99.90;;;;;;4970821;28;20204;-77
2022/04/29 08:14:44;;;;;;;18.13;12.68;;;13.30;99.90;;;;;;4968553;28;20232;-77
2022/04/29 08:17:30;;;;;;;19.25;12.35;;;13.30;99.90;;;;;;4974814;28;20188;-77
2022/04/29 08:19:59;;;;;;;18.75;12.48;;;13.60;99.90;;;;;;4974910;28;20221;-75
2022/04/29 08:22:34;;;;;;;15.55;11.45;;;13.40;99.90;;;;;;4975479;28;20200;-77
2022/04/29 08:25:07;;;;;;;18.95;11.88;;;12.90;99.90;;;;;;4974068;28;20698;-77
2022/04/29 08:27:36;;;;;;;16.00;12.35;;;12.90;99.90;;;;;;4974604;28;20540;-77
2022/04/29 08:30:06;;;;;;;17.35;11.73;;;13.20;99.90;;;;;;4973425;28;20189;-77
2022/04/29 08:32:43;;;;;;;14.52;11.50;;;13.10;99.90;;;;;;4986898;28;20197;-78
2022/04/29 08:36:06;;;;;;;17.13;11.65;;;13.20;99.90;;;;;;4987046;28;20651;-76
2022/04/29 08:38:33;;;;;;;16.73;12.25;;;13.40;99.90;;;;;;4973606;28;20232;-76
2022/04/29 08:41:03;;;;;;;17.63;12.15;;;13.40;99.90;;;;;;4974643;28;20215;-75
2022/04/29 08:43:33;;;;;;;16.75;12.73;;;13.40;99.90;;;;;;4989161;28;20224;-76
2022/04/29 08:46:05;;;;;;;17.50;13.15;;;13.00;99.90;;;;;;4975056;28;20209;-76
2022/04/29 08:49:12;;;;;;;19.02;13.05;;;13.00;99.90;;;;;;4960154;28;20220;-76
2022/04/29 08:51:49;;;;;;;17.25;12.90;;;13.20;99.90;;;;;;4974824;28;20193;-75
2022/04/29 08:58:36;;;;;;;17.63;12.57;;;13.30;99.90;;;;;;4974346;28;20243;-75
2022/04/29 08:59:58;;;;;;;16.50;12.23;;;13.40;99.90;;;;;;4984576;28;20247;-75
2022/04/29 09:02:27;;;;;;;21.00;12.90;;;13.40;99.90;;;;;;4987031;28;20210;-75
2022/04/29 09:04:57;;;;;;;17.92;12.25;;;13.40;99.90;;;;;;4975472;28;20240;-75
2022/04/29 09:07:51;;;;;;;20.98;12.95;;;13.20;99.90;;;;;;4990552;28;20213;-75
2022/04/29 09:10:20;;;;;;;18.50;12.20;;;13.30;99.90;;;;;;4975081;28;20193;-75
2022/04/29 09:12:47;;;;;;;19.13;12.57;;;13.30;99.90;;;;;;4970630;28;20205;-75
2022/04/29 09:15:17;;;;;;;18.90;11.55;;;13.40;99.90;;;;;;4975960;28;20229;-77
2022/04/29 09:17:49;;;;;;;17.55;12.05;;;13.50;99.90;;;;;;4989078;28;20197;-77
2022/04/29 09:20:18;;;;;;;14.80;11.10;;;13.50;99.90;;;;;;4976250;28;20220;-76
2022/04/29 09:22:47;;;;;;;17.98;11.73;;;13.70;99.90;;;;;;4972330;28;20216;-75
2022/04/29 09:25:38;;;;;;;14.70;10.77;;;13.80;99.90;;;;;;4983007;28;20209;-75
2022/04/29 09:28:40;;;;;;;12.95;10.02;;;13.80;99.80;;;;;;4982146;28;20212;-75
2022/04/29 09:31:16;;;;;;;14.48;10.00;;;13.80;99.70;;;;;;4989434;28;20196;-75
2022/04/29 09:34:47;;;;;;;15.00;9.30;;;14.00;99.40;;;;;;4973356;28;20615;-75
2022/04/29 09:37:30;;;;;;;12.52;9.80;;;13.90;99.60;;;;;;4988594;28;20197;-75
2022/04/29 09:40:00;;;;;;;15.57;9.77;;;14.20;99.50;;;;;;4989659;28;20213;-75
2022/04/29 09:42:38;;;;;;;13.13;8.82;;;14.30;98.80;;;;;;4989750;28;20193;-75
2022/04/29 09:45:20;;;;;;;13.52;9.35;;;14.30;98.60;;;;;;4988660;28;20220;-75
2022/04/29 09:47:54;;;;;;;13.63;9.18;;;14.30;99.10;;;;;;4963698;28;20201;-75
2022/04/29 09:50:23;;;;;;;14.82;9.15;;;14.50;99.80;;;;;;4973692;28;20244;-75
2022/04/29 09:52:50;;;;;;;10.40;8.85;;;14.40;98.90;;;;;;4989191;28;20213;-75
2022/04/29 09:55:19;;;;;;;14.65;9.60;;;14.30;98.50;;;;;;4988812;28;20562;-75
2022/04/29 09:57:48;;;;;;;16.17;9.23;;;14.00;98.90;;;;;;4967207;28;20197;-75
2022/04/29 10:00:17;;;;;;;14.35;9.00;;;13.90;99.10;;;;;;4956302;28;20568;-75
2022/04/29 10:02:44;;;;;;;14.63;9.35;;;14.00;99.20;;;;;;4988599;28;20208;-75
2022/04/29 10:05:12;;;;;;;12.20;8.70;;;14.10;99.10;;;;;;4968668;28;20225;-75
2022/04/29 10:07:44;;;;;;;10.23;8.35;;;13.90;99.30;;;;;;4973495;28;20201;-75
2022/04/29 10:10:12;;;;;;;14.13;9.27;;;14.00;99.20;;;;;;4990712;28;20674;-75
2022/04/29 10:12:40;;;;;;;13.20;9.00;;;14.30;99.00;;;;;;4981414;28;20200;-77
2022/04/29 10:15:24;;;;;;;12.70;8.77;;;14.10;98.90;;;;;;4963327;28;20240;-75
2022/04/29 10:21:19;;;;;;;10.13;7.60;;;14.00;98.20;;;;;;4974998;28;20213;-75
2022/04/29 10:24:00;;;;;;;13.48;7.88;;;14.30;98.20;;;;;;4972878;28;20220;-76
2022/04/29 10:27:02;;;;;;;13.05;8.07;;;14.60;98.00;;;;;;4970505;28;20212;-75
2022/04/29 10:29:29;;;;;;;12.70;8.27;;;14.60;97.90;;;;;;4986400;28;20204;-75
2022/04/29 10:32:08;;;;;;;11.50;7.28;;;14.80;97.50;;;;;;4990131;28;20201;-76
2022/04/29 10:34:36;;;;;;;13.82;8.68;;;14.90;97.30;;;;;;4989591;28;20221;-76
2022/04/29 10:37:14;;;;;;;13.80;7.85;;;14.70;96.90;;;;;;4994828;28;20197;-75
2022/04/29 10:40:10;;;;;;;13.13;8.13;;;14.70;97.10;;;;;;4973808;28;20213;-75
2022/04/29 10:43:06;;;;;;;9.68;8.05;;;14.70;96.90;;;;;;4974897;28;20193;-75
2022/04/29 10:45:34;;;;;;;11.85;8.27;;;14.80;97.00;;;;;;4974358;28;20209;-76
2022/04/29 10:51:52;;;;;;;13.32;8.52;;;15.00;96.20;;;;;;4979472;28;20193;-76
2022/04/29 10:54:45;;;;;;;13.00;8.10;;;14.90;96.20;;;;;;4971846;28;20225;-76
2022/04/29 11:01:09;;;;;;;12.95;8.13;;;15.40;96.20;;;;;;4985235;28;20213;-76
2022/04/29 11:04:28;;;;;;;13.27;7.90;;;15.10;95.70;;;;;;4969564;28;20693;-76
2022/04/29 11:07:07;;;;;;;13.68;7.63;;;15.00;95.40;;;;;;4962379;28;20201;-76
2022/04/29 11:09:50;;;;;;;13.13;7.75;;;14.80;95.20;;;;;;4963781;28;20208;-76
2022/04/29 11:12:30;;;;;;;11.18;7.53;;;14.80;95.30;;;;;;4974315;28;20197;-76
2022/04/29 11:15:21;;;;;;;12.88;7.95;;;14.80;95.00;;;;;;4968240;28;20221;-76
2022/04/29 11:18:15;;;;;;;9.93;8.45;;;14.90;94.80;;;;;;4953341;29;20216;-76
2022/04/29 11:20:46;;;;;;;10.93;7.68;;;14.90;94.70;;;;;;4970421;28;20216;-76
2022/04/29 11:26:02;;;;;;;14.48;7.90;;;15.20;94.70;;;;;;4961016;28;20193;-76
2022/04/29 11:28:38;;;;;;;12.68;7.88;;;15.60;94.20;;;;;;4970848;28;20201;-76
2022/04/29 11:31:35;;;;;;;11.57;6.90;;;15.70;93.90;;;;;;4962868;28;20691;-76
2022/04/29 11:34:08;;;;;;;10.23;7.45;;;15.90;93.80;;;;;;4981745;28;20228;-77
2022/04/29 11:36:36;;;;;;;11.13;7.03;;;15.30;94.60;;;;;;4970535;28;20663;-77
2022/04/29 11:39:09;;;;;;;13.95;8.27;;;15.50;93.80;;;;;;4993932;28;20208;-77
2022/04/29 11:41:38;;;;;;;10.43;7.00;;;15.80;93.90;;;;;;4986319;28;20224;-77
2022/04/29 11:44:05;;;;;;;10.27;7.57;;;15.80;93.00;;;;;;4986239;28;20717;-77
2022/04/29 11:46:32;;;;;;;10.15;7.32;;;15.90;92.90;;;;;;4989048;28;20200;-77
2022/04/29 11:49:06;;;;;;;12.98;8.18;;;15.90;92.90;;;;;;4986291;28;20674;-77
2022/04/29 11:51:34;;;;;;;10.68;7.45;;;16.00;93.00;;;;;;4972209;28;20193;-77
2022/04/29 11:54:05;;;;;;;9.52;7.47;;;16.10;92.70;;;;;;4968457;28;20220;-77
2022/04/29 11:56:35;;;;;;;11.82;7.35;;;16.30;92.30;;;;;;4965793;28;20189;-77
2022/04/29 11:59:05;;;;;;;14.70;7.93;;;16.50;92.40;;;;;;4967676;28;20695;-77
2022/04/29 12:01:33;;;;;;;10.43;7.50;;;16.50;92.90;;;;;;4969751;28;20209;-77
2022/04/29 12:04:00;;;;;;;10.60;7.57;;;16.60;93.20;;;;;;4965971;28;20220;-77
2022/04/29 12:06:28;;;;;;;16.08;7.82;;;16.60;92.90;;;;;;4977446;28;20201;-77
2022/04/29 12:08:55;;;;;;;10.55;7.22;;;16.90;92.60;;;;;;4986661;28;20197;-77
2022/04/29 12:11:25;;;;;;;10.13;7.00;;;16.70;92.60;;;;;;4975694;28;20549;-77
2022/04/29 12:13:52;;;;;;;11.55;7.75;;;16.90;92.40;;;;;;4971253;28;20678;-77
2022/04/29 12:16:21;;;;;;;8.60;7.65;;;16.50;93.00;;;;;;4970975;28;20197;-77
2022/04/29 12:18:50;;;;;;;10.77;7.70;;;16.80;92.80;;;;;;4985854;28;20205;-77
2022/04/29 12:21:27;;;;;;;10.40;7.82;;;16.90;92.50;;;;;;4970699;28;20213;-78
2022/04/29 12:23:54;;;;;;;7.97;6.78;;;17.00;91.30;;;;;;4970169;28;20698;-77
2022/04/29 12:26:22;;;;;;;10.32;7.25;;;17.20;91.10;;;;;;4973342;28;20193;-78
2022/04/29 12:28:57;;;;;;;10.30;6.65;;;17.40;91.30;;;;;;4969122;28;20201;-78
2022/04/29 12:35:05;;;;;;;9.18;6.90;;;16.80;91.40;;;;;;4983425;28;20217;-78
2022/04/29 12:37:33;;;;;;;15.07;8.88;;;16.80;90.80;;;;;;4968759;28;20212;-78
2022/04/29 12:40:05;;;;;;;11.85;7.90;;;16.40;92.20;;;;;;4968298;28;20222;-78
2022/04/29 12:42:33;;;;;;;11.10;7.18;;;16.30;92.70;;;;;;4984244;28;20210;-78
2022/04/29 12:45:08;;;;;;;8.95;8.02;;;16.40;92.00;;;;;;4982355;28;20708;-77
2022/04/29 12:47:49;;;;;;;12.75;7.75;;;16.30;91.80;;;;;;4969010;28;20205;-77
2022/04/29 12:50:18;;;;;;;15.95;7.63;;;16.70;91.50;;;;;;4971974;28;20289;-77
2022/04/29 12:53:00;;;;;;;12.55;7.47;;;16.90;91.70;;;;;;4967502;28;20658;-77
2022/04/29 12:55:29;;;;;;;9.63;7.22;;;16.50;91.20;;;;;;4980201;28;20212;-77
2022/04/29 12:58:09;;;;;;;8.90;7.03;;;16.10;91.80;;;;;;4968657;28;20553;-77
2022/04/29 13:01:09;;;;;;;11.02;7.55;;;16.00;92.20;;;;;;4971783;28;20201;-76
2022/04/29 13:03:52;;;;;;;9.13;7.97;;;16.10;92.50;;;;;;4971807;28;20224;-77
2022/04/29 13:06:32;;;;;;;11.73;7.97;;;16.10;92.20;;;;;;4980571;28;20204;-76
2022/04/29 13:09:08;;;;;;;12.98;8.18;;;16.10;92.30;;;;;;4974664;28;20193;-75
2022/04/29 13:11:36;;;;;;;11.13;7.78;;;16.30;92.40;;;;;;4990869;28;20201;-76
2022/04/29 13:14:16;;;;;;;11.02;8.57;;;16.30;91.80;;;;;;4971895;28;20236;-77
2022/04/29 13:16:47;;;;;;;11.70;8.75;;;16.10;91.90;;;;;;4963017;28;20213;-76
2022/04/29 13:19:15;;;;;;;13.70;8.50;;;16.00;92.00;;;;;;4975207;28;20197;-77
2022/04/29 13:21:46;;;;;;;13.27;9.20;;;16.30;92.10;;;;;;4973505;28;20209;-77
2022/04/29 13:24:14;;;;;;;12.38;9.30;;;16.50;91.90;;;;;;4990040;28;20703;-78
2022/04/29 13:26:53;;;;;;;13.65;9.48;;;16.40;92.20;;;;;;4996668;28;20227;-78
2022/04/29 13:29:20;;;;;;;13.60;9.23;;;16.50;92.10;;;;;;4980327;28;20208;-78
2022/04/29 13:31:53;;;;;;;13.50;10.02;;;16.50;91.90;;;;;;4975457;28;20603;-77
2022/04/29 13:34:22;;;;;;;11.63;10.23;;;16.20;92.30;;;;;;4974282;28;20217;-77
2022/04/29 13:36:49;;;;;;;14.73;10.00;;;16.10;92.70;;;;;;4986805;28;20194;-77
2022/04/29 13:39:25;;;;;;;14.45;10.38;;;16.10;93.00;;;;;;4984554;28;20208;-77
2022/04/29 13:42:22;;;;;;;12.95;9.82;;;16.00;93.20;;;;;;4969124;28;20210;-77
2022/04/29 13:44:49;;;;;;;13.48;10.48;;;15.80;93.20;;;;;;4994580;28;20225;-76
2022/04/29 13:47:16;;;;;;;12.07;10.85;;;15.80;93.60;;;;;;4994645;28;20205;-75
2022/04/29 13:49:45;;;;;;;15.18;10.75;;;15.70;93.40;;;;;;4992967;28;20205;-76
2022/04/29 13:54:57;;;;;;;15.63;11.63;;;15.70;93.80;;;;;;4989488;28;20231;-76